createdAt,value
2018-06-30T00:02:20.492Z,97308.00
2018-06-30T00:05:09.814Z,97318.00
2018-06-30T00:07:42.829Z,97313.00
2018-06-30T00:10:16.640Z,97317.00
2018-06-30T00:12:48.279Z,97317.00
2018-06-30T00:15:21.420Z,97313.00
2018-06-30T00:17:55.615Z,97317.00
2018-06-30T00:20:25.859Z,97319.00
2018-06-30T00:23:00.258Z,97320.00
2018-06-30T00:25:31.728Z,97319.00
2018-06-30T00:28:14.477Z,97327.00
2018-06-30T00:30:53.657Z,97317.00
2018-06-30T00:33:25.117Z,97331.00
2018-06-30T00:35:57.044Z,97314.00
2018-06-30T00:38:30.678Z,97313.00
2018-06-30T00:41:01.774Z,97319.00
2018-06-30T00:43:32.837Z,97329.00
2018-06-30T00:46:03.557Z,97322.00
2018-06-30T00:48:34.699Z,97325.00
2018-06-30T00:51:06.501Z,97322.00
2018-06-30T00:53:38.312Z,97326.00
2018-06-30T00:56:11.104Z,97318.00
2018-06-30T00:58:42.997Z,97324.00
2018-06-30T01:01:14.108Z,97327.00
2018-06-30T01:03:55.756Z,97321.00
2018-06-30T01:06:43.144Z,97329.00
2018-06-30T01:09:16.675Z,97329.00
2018-06-30T01:11:47.233Z,97326.00
2018-06-30T01:14:17.945Z,97326.00
2018-06-30T01:16:49.024Z,97316.00
2018-06-30T01:19:22.305Z,97337.00
2018-06-30T01:21:58.052Z,97327.00
2018-06-30T01:24:28.695Z,97329.00
2018-06-30T01:26:59.594Z,97333.00
2018-06-30T01:29:30.371Z,97333.00
2018-06-30T01:32:01.402Z,97342.00
2018-06-30T01:34:32.742Z,97340.00
2018-06-30T01:37:04.653Z,97347.00
2018-06-30T01:39:37.520Z,97347.00
2018-06-30T01:42:10.061Z,97341.00
2018-06-30T01:44:42.859Z,97338.00
2018-06-30T01:47:13.774Z,97340.00
2018-06-30T01:49:46.902Z,97344.00
2018-06-30T01:52:17.482Z,97339.00
2018-06-30T01:54:50.234Z,97328.00
2018-06-30T01:57:21.537Z,97348.00
2018-06-30T01:59:52.146Z,97334.00
2018-06-30T02:02:23.978Z,97338.00
2018-06-30T02:04:55.547Z,97343.00
2018-06-30T02:07:30.108Z,97333.00
2018-06-30T02:10:02.152Z,97326.00
2018-06-30T02:12:33.527Z,97330.00
2018-06-30T02:15:04.465Z,97327.00
2018-06-30T02:17:36.090Z,97328.00
2018-06-30T02:20:08.664Z,97327.00
2018-06-30T02:22:39.516Z,97336.00
2018-06-30T02:25:10.215Z,97338.00
2018-06-30T02:27:42.446Z,97330.00
2018-06-30T02:30:12.512Z,97327.00
2018-06-30T02:32:43.770Z,97326.00
2018-06-30T02:35:16.479Z,97336.00
2018-06-30T02:37:50.708Z,97331.00
2018-06-30T02:40:21.812Z,97337.00
2018-06-30T02:42:52.576Z,97335.00
2018-06-30T02:45:24.707Z,97340.00
2018-06-30T02:47:56.499Z,97337.00
2018-06-30T02:50:27.147Z,97333.00
2018-06-30T02:52:58.877Z,97345.00
2018-06-30T02:55:34.307Z,97343.00
2018-06-30T02:58:05.166Z,97340.00
2018-06-30T03:00:35.522Z,97348.00
2018-06-30T03:03:06.068Z,97345.00
2018-06-30T03:05:36.509Z,97351.00
2018-06-30T03:08:07.841Z,97354.00
2018-06-30T03:10:41.187Z,97348.00
2018-06-30T03:13:12.976Z,97353.00
2018-06-30T03:15:44.245Z,97346.00
2018-06-30T03:18:15.019Z,97352.00
2018-06-30T03:20:48.619Z,97356.00
2018-06-30T03:23:19.366Z,97342.00
2018-06-30T03:25:52.051Z,97348.00
2018-06-30T03:28:24.834Z,97359.00
2018-06-30T03:30:55.798Z,97354.00
2018-06-30T03:33:27.434Z,97356.00
2018-06-30T03:35:59.249Z,97351.00
2018-06-30T03:38:29.996Z,97359.00
2018-06-30T03:41:03.066Z,97351.00
2018-06-30T03:43:33.836Z,97356.00
2018-06-30T03:46:05.852Z,97358.00
2018-06-30T03:48:37.358Z,97357.00
2018-06-30T03:51:08.515Z,97359.00
2018-06-30T03:53:38.973Z,97359.00
2018-06-30T03:56:17.526Z,97359.00
2018-06-30T03:58:53.053Z,97360.00
2018-06-30T04:01:25.724Z,97368.00
2018-06-30T04:04:01.869Z,97368.00
2018-06-30T04:06:33.724Z,97367.00
2018-06-30T04:09:04.060Z,97378.00
2018-06-30T04:11:37.229Z,97377.00
2018-06-30T04:14:09.487Z,97385.00
2018-06-30T04:16:43.704Z,97375.00
2018-06-30T04:19:18.011Z,97389.00
2018-06-30T04:21:48.923Z,97390.00
2018-06-30T04:24:22.717Z,97392.00
2018-06-30T04:26:53.851Z,97386.00
2018-06-30T04:29:25.988Z,97387.00
2018-06-30T04:31:57.522Z,97389.00
2018-06-30T04:34:27.958Z,97386.00
2018-06-30T04:36:58.231Z,97400.00
2018-06-30T04:39:31.618Z,97392.00
2018-06-30T04:42:02.848Z,97398.00
2018-06-30T04:44:33.354Z,97391.00
2018-06-30T04:47:13.071Z,97400.00
2018-06-30T04:49:44.029Z,97408.00
2018-06-30T04:52:14.285Z,97402.00
2018-06-30T04:54:45.713Z,97403.00
2018-06-30T04:57:16.743Z,97405.00
2018-06-30T04:59:47.447Z,97406.00
2018-06-30T05:02:17.814Z,97407.00
2018-06-30T05:04:48.615Z,97404.00
2018-06-30T05:07:19.286Z,97412.00
2018-06-30T05:09:53.546Z,97415.00
2018-06-30T05:12:24.735Z,97410.00
2018-06-30T05:14:59.318Z,97407.00
2018-06-30T05:17:30.376Z,97416.00
2018-06-30T05:20:00.893Z,97399.00
2018-06-30T05:22:35.415Z,97411.00
2018-06-30T05:25:07.519Z,97411.00
2018-06-30T05:27:38.529Z,97413.00
2018-06-30T05:30:09.002Z,97411.00
2018-06-30T05:32:40.210Z,97419.00
2018-06-30T05:35:10.786Z,97421.00
2018-06-30T05:37:41.070Z,97425.00
2018-06-30T05:40:12.487Z,97429.00
2018-06-30T05:42:43.824Z,97436.00
2018-06-30T05:45:15.113Z,97424.00
2018-06-30T05:47:45.250Z,97426.00
2018-06-30T05:50:15.836Z,97429.00
2018-06-30T05:52:46.906Z,97431.00
2018-06-30T05:55:17.781Z,97435.00
2018-06-30T05:57:48.526Z,97430.00
2018-06-30T06:00:19.156Z,97432.00
2018-06-30T06:02:49.543Z,97432.00
2018-06-30T06:05:20.160Z,97430.00
2018-06-30T06:07:50.991Z,97435.00
2018-06-30T06:10:23.077Z,97441.00
2018-06-30T06:13:03.654Z,97445.00
2018-06-30T06:16:01.411Z,97436.00
2018-06-30T06:18:32.360Z,97451.00
2018-06-30T06:21:05.473Z,97454.00
2018-06-30T06:23:37.428Z,97451.00
2018-06-30T06:26:08.006Z,97445.00
2018-06-30T06:28:44.999Z,97453.00
2018-06-30T06:31:19.090Z,97449.00
2018-06-30T06:33:58.754Z,97446.00
2018-06-30T06:36:35.422Z,97449.00
2018-06-30T06:39:07.320Z,97445.00
2018-06-30T06:41:39.813Z,97444.00
2018-06-30T06:44:38.720Z,97435.00
2018-06-30T06:47:27.433Z,97446.00
2018-06-30T06:50:03.410Z,97453.00
2018-06-30T06:52:35.081Z,97454.00
2018-06-30T06:55:06.910Z,97450.00
2018-06-30T06:57:41.764Z,97453.00
2018-06-30T07:00:26.109Z,97450.00
2018-06-30T07:03:08.710Z,97447.00
2018-06-30T07:05:42.275Z,97452.00
2018-06-30T07:08:14.007Z,97435.00
2018-06-30T07:10:46.324Z,97450.00
2018-06-30T07:13:17.123Z,97451.00
2018-06-30T07:15:50.424Z,97453.00
2018-06-30T07:18:21.750Z,97450.00
2018-06-30T07:20:51.936Z,97449.00
2018-06-30T07:23:29.686Z,97460.00
2018-06-30T07:26:01.386Z,97460.00
2018-06-30T07:28:35.802Z,97462.00
2018-06-30T07:31:07.618Z,97469.00
2018-06-30T07:43:02.068Z,97471.00
2018-06-30T07:45:32.286Z,97469.00
2018-06-30T07:48:07.429Z,97469.00
2018-06-30T07:50:38.198Z,97468.00
2018-06-30T07:53:14.390Z,97470.00
2018-06-30T07:55:45.149Z,97467.00
2018-06-30T07:58:21.097Z,97467.00
2018-06-30T08:01:05.045Z,97472.00
2018-06-30T08:03:49.222Z,97468.00
2018-06-30T08:06:34.549Z,97476.00
2018-06-30T08:09:16.057Z,97474.00
2018-06-30T08:11:56.881Z,97485.00
2018-06-30T08:14:29.092Z,97472.00
2018-06-30T08:16:59.501Z,97487.00
2018-06-30T08:19:35.106Z,97489.00
2018-06-30T08:22:26.863Z,97492.00
2018-06-30T08:24:59.818Z,97497.00
2018-06-30T08:27:30.376Z,97501.00
2018-06-30T08:30:02.829Z,97502.00
2018-06-30T08:33:05.301Z,97499.00
2018-06-30T08:39:21.823Z,97519.00
2018-06-30T08:42:56.417Z,97517.00
2018-06-30T08:45:42.844Z,97522.00
2018-06-30T08:48:15.099Z,97514.00
2018-06-30T08:51:05.705Z,97515.00
2018-06-30T08:54:18.712Z,97517.00
2018-06-30T09:03:22.288Z,97520.00
2018-06-30T09:05:57.674Z,97528.00
2018-06-30T09:08:35.408Z,97515.00
2018-06-30T09:11:05.758Z,97522.00
2018-06-30T09:13:38.958Z,97522.00
2018-06-30T09:16:11.264Z,97526.00
2018-06-30T09:18:45.818Z,97522.00
2018-06-30T09:21:19.293Z,97521.00
2018-06-30T09:24:22.653Z,97519.00
2018-06-30T09:30:13.732Z,97525.00
2018-06-30T09:32:57.048Z,97524.00
2018-06-30T09:35:43.324Z,97532.00
2018-06-30T09:38:18.556Z,97538.00
2018-06-30T09:40:50.733Z,97541.00
2018-06-30T09:45:18.806Z,97538.00
2018-06-30T09:48:10.695Z,97535.00
2018-06-30T09:50:58.957Z,97552.00
2018-06-30T09:53:32.482Z,97540.00
2018-06-30T09:56:10.453Z,97540.00
2018-06-30T10:02:33.919Z,97536.00
2018-06-30T10:05:23.424Z,97545.00
2018-06-30T10:30:51.500Z,97546.00
2018-06-30T10:33:49.904Z,97555.00
2018-06-30T10:39:48.743Z,97547.00
2018-06-30T10:42:57.119Z,97551.00
2018-06-30T11:08:32.324Z,97533.00
2018-06-30T11:16:50.285Z,97536.00
2018-06-30T11:38:00.026Z,97518.00
2018-06-30T11:40:38.895Z,97511.00
2018-06-30T11:52:58.760Z,97521.00
2018-06-30T11:55:49.260Z,97520.00
2018-06-30T12:01:36.354Z,97530.00
2018-06-30T12:04:27.709Z,97523.00
2018-06-30T12:15:59.220Z,97525.00
2018-06-30T12:18:54.045Z,97520.00
2018-06-30T12:22:03.374Z,97512.00
2018-06-30T12:34:02.672Z,97528.00
2018-06-30T12:42:13.433Z,97516.00
2018-06-30T12:48:13.263Z,97517.00
2018-06-30T13:21:57.640Z,97494.00
2018-06-30T13:24:59.962Z,97529.00
2018-06-30T13:28:58.411Z,97510.00
2018-06-30T13:35:32.713Z,97503.00
2018-06-30T13:38:37.776Z,97510.00
2018-06-30T14:24:09.925Z,97492.00
2018-06-30T14:42:29.516Z,97474.00
2018-06-30T14:48:20.625Z,97478.00
2018-06-30T14:51:08.488Z,97483.00
2018-06-30T14:53:46.080Z,97490.00
2018-06-30T15:09:43.076Z,97488.00
2018-06-30T15:15:52.713Z,97491.00
2018-06-30T15:18:33.020Z,97492.00
2018-06-30T15:21:14.612Z,97492.00
2018-06-30T15:24:18.604Z,97487.00
2018-06-30T15:32:01.644Z,97499.00
2018-06-30T15:42:06.824Z,97478.00
2018-06-30T15:44:42.342Z,97482.00
2018-06-30T15:47:13.834Z,97484.00
2018-06-30T15:58:32.623Z,97504.00
2018-06-30T16:01:06.411Z,97488.00
2018-06-30T16:04:10.015Z,97482.00
2018-06-30T16:07:09.420Z,97483.00
2018-06-30T16:13:35.823Z,97474.00
2018-06-30T16:16:23.357Z,97474.00
2018-06-30T16:18:54.005Z,97480.00
2018-06-30T16:21:27.516Z,97471.00
2018-06-30T16:24:19.880Z,97480.00
2018-06-30T17:11:46.968Z,97200.00
2018-06-30T17:38:29.344Z,97478.00
2018-06-30T17:44:44.978Z,97483.00
2018-06-30T17:47:24.521Z,97477.00
2018-06-30T17:59:37.300Z,97482.00
2018-06-30T18:02:18.499Z,97492.00
2018-06-30T18:05:03.716Z,97493.00
2018-06-30T18:08:10.311Z,97488.00
2018-06-30T18:10:53.639Z,97490.00
2018-06-30T18:13:32.151Z,97491.00
2018-06-30T18:16:23.321Z,97491.00
2018-06-30T18:19:18.653Z,97504.00
2018-06-30T18:21:54.120Z,97498.00
2018-06-30T18:25:03.102Z,97503.00
2018-06-30T18:28:44.503Z,97509.00
2018-06-30T18:31:32.210Z,97501.00
2018-06-30T18:34:20.290Z,97513.00
2018-06-30T18:51:29.473Z,97498.00
2018-06-30T18:54:05.939Z,97518.00
2018-06-30T18:56:44.102Z,97524.00
2018-06-30T18:59:58.174Z,97511.00
2018-06-30T19:03:34.049Z,97518.00
2018-06-30T19:09:25.747Z,97524.00
2018-06-30T19:15:05.737Z,97519.00
2018-06-30T19:20:44.252Z,97533.00
2018-06-30T19:23:24.643Z,97529.00
2018-06-30T19:26:01.362Z,97537.00
2018-06-30T19:28:51.237Z,97533.00
2018-06-30T19:31:35.553Z,97534.00
2018-06-30T19:34:11.597Z,97532.00
2018-06-30T19:36:49.195Z,97536.00
2018-06-30T19:39:32.292Z,97546.00
2018-06-30T19:42:27.461Z,97537.00
2018-06-30T19:50:33.025Z,97545.00
2018-06-30T19:53:07.481Z,97549.00
2018-06-30T19:55:40.303Z,97549.00
2018-06-30T19:58:18.093Z,97553.00
2018-06-30T20:01:05.247Z,97556.00
2018-06-30T20:23:16.766Z,97575.00
2018-06-30T20:32:16.262Z,97576.00
2018-06-30T20:42:17.432Z,97594.00
2018-06-30T20:51:47.353Z,97596.00
2018-06-30T20:54:28.957Z,97592.00
2018-06-30T20:57:32.530Z,97592.00
2018-06-30T21:00:39.392Z,97596.00
2018-06-30T21:03:58.300Z,97604.00
2018-06-30T21:09:41.261Z,97609.00
2018-06-30T21:16:13.974Z,97604.00
2018-06-30T21:19:19.370Z,97609.00
2018-06-30T21:26:22.498Z,97605.00
2018-06-30T21:29:16.765Z,97611.00
2018-06-30T21:31:53.561Z,97603.00
2018-06-30T21:34:28.708Z,97600.00
2018-06-30T21:37:01.695Z,97606.00
2018-06-30T21:39:34.263Z,97607.00
2018-06-30T21:42:09.771Z,97613.00
2018-06-30T21:44:50.654Z,97615.00
2018-06-30T21:47:30.530Z,97613.00
2018-06-30T21:50:12.958Z,97609.00
2018-06-30T21:52:46.007Z,97606.00
2018-06-30T21:55:21.065Z,97612.00
2018-06-30T21:57:55.940Z,97609.00
2018-06-30T22:00:59.330Z,97617.00
2018-06-30T22:03:41.096Z,97614.00
2018-06-30T22:06:14.458Z,97616.00
2018-06-30T22:08:45.624Z,97619.00
2018-06-30T22:11:17.369Z,97610.00
2018-06-30T22:14:03.986Z,97625.00
2018-06-30T22:16:38.562Z,97619.00
2018-06-30T22:19:10.055Z,97619.00
2018-06-30T22:21:44.416Z,97620.00
2018-06-30T22:24:16.407Z,97618.00
2018-06-30T22:26:51.448Z,97625.00
2018-06-30T22:29:24.332Z,97615.00
2018-06-30T22:32:11.662Z,97615.00
2018-06-30T22:34:45.501Z,97617.00
2018-06-30T22:37:20.899Z,97614.00
2018-06-30T22:40:19.728Z,97616.00
2018-06-30T22:42:51.988Z,97616.00
2018-06-30T22:45:32.821Z,97615.00
2018-06-30T22:48:55.713Z,97610.00
2018-06-30T22:51:50.676Z,97623.00
2018-06-30T22:54:24.345Z,97624.00
2018-06-30T22:57:07.359Z,97613.00
2018-06-30T22:59:39.331Z,97621.00
2018-06-30T23:02:13.149Z,97620.00
2018-06-30T23:04:49.061Z,97623.00
2018-06-30T23:07:21.588Z,97621.00
2018-06-30T23:09:54.349Z,97621.00
2018-06-30T23:12:27.519Z,97615.00
2018-06-30T23:15:01.357Z,97619.00
2018-06-30T23:17:33.751Z,97619.00
2018-06-30T23:20:06.154Z,97625.00
2018-06-30T23:23:02.767Z,97621.00
2018-06-30T23:25:34.731Z,97616.00
2018-06-30T23:28:09.814Z,97610.00
2018-06-30T23:30:40.735Z,97624.00
2018-06-30T23:33:11.496Z,97621.00
2018-06-30T23:35:43.639Z,97620.00
2018-06-30T23:38:17.549Z,97620.00
2018-06-30T23:40:49.121Z,97623.00
2018-06-30T23:43:23.903Z,97628.00
2018-06-30T23:45:55.798Z,97632.00
2018-06-30T23:48:27.284Z,97630.00
2018-06-30T23:50:59.151Z,97631.00
2018-06-30T23:53:29.528Z,97631.00
2018-06-30T23:56:00.574Z,97628.00
2018-06-30T23:58:34.186Z,97634.00
